METAR Data
IDs: Format: Raw Decoded Include TAF

Data at: 1635 UTC 04 Aug 2021

LZIB 041630Z 18006KT 9999 FEW049 23/14 Q1013 NOSIG